Rule, Texas
Current Conditions -  °F | °C
As of 3:58 AM on Saturday 29 Nov 2014 (Local Time) from KDYS Reporting Station
Clear Clear  
Wind Chill: 55°   Ceiling: Unl
Heat Index: 55°   Visibility: 10mi
Dew Point: 43°   Wind: 28mph
Humidity: 63%   Direction: 220°SW
Pressure: 29.92"   Gusts: 36mph
Location:  33.18°N, 99.89°W
Report Text: KDYS 290958Z AUTO 22024G31KT 10SM CLR 13/06 A2992 RMK AO2 SLP105 T01300062 21028 $
Loading
Personal Weather Stations






























Interactive Weather Map New forecast layout! Learn more

10-Day Weather Forecast

Advertisements
Track Severe Weather on mobile